Sylvan, Washington
Current Conditions -  °F | °C
As of 7:05 AM on Friday 31 Oct 2014 (Local Time) from KTIW Reporting Station
Light Rain Light Rain  
Wind Chill: 50°   Ceiling: 500
Heat Index: 50°   Visibility: 4mi
Dew Point: 49°   Wind: 7mph
Humidity: 96%   Direction: 250°WSW
Pressure: 29.7"   Gusts: NA
Location:  47.2495°N, 122.621°W
Report Text: KTIW 311405Z AUTO 25006KT 4SM -RA BR BKN005 OVC010 10/09 A2970 RMK AO2 P0001 T01000094
Loading
Personal Weather Stations






























Interactive Weather Map
Tropical Storm Tracking
New forecast layout! Learn more

10-Day Weather Forecast

Advertisements
Track Severe Weather on mobile